LDSB/BWK METAR and TAF weather

Enter ICAO airport designator
Station Type Date Time Source
LDSB METAR 2022/01/26 12:30 UTC NOAA

LDSB 261230Z 35003KT 280V060 CAVOK 08/M05 Q1024


Station Type Date Time Source
LDSB Decoded METAR 2022/01/26 12:30 UTC NOAA

Brac, Croatia (LDSB) 43-17-09N 016-40-47E
Jan 26, 2022 - 07:30 AM EST / 2022.01.26 1230 UTC
Wind: from the N (350 degrees) at 3 MPH (3 KT) (direction variable):0
Visibility: greater than 7 mile(s):0
Temperature: 46 F (8 C)
Dew Point: 23 F (-5 C)
Relative Humidity: 39%
Pressure (altimeter): 30.24 in. Hg (1024 hPa)
ob: LDSB 261230Z 35003KT 280V060 CAVOK 08/M05 Q1024
cycle: 12

Station Type Date Time Source
LDSB TAF 2022/01/26 12:36 UTC NOAA

TAF TAF LDSB 261134Z 2612/2712 35007KT CAVOK TX10/2614Z TN00/2704Z

Example: see airport list